sensor_id;sensor_type;location;lat;lon;timestamp;pressure;altitude;pressure_sealevel;temperature;humidity
24234;BME280;12365;43.554;1.388;2022-10-31T00:02:05;100076.50;;;22.96;57.81
24234;BME280;12365;43.554;1.388;2022-10-31T00:04:30;100080.06;;;22.94;57.61
24234;BME280;12365;43.554;1.388;2022-10-31T00:06:55;100072.94;;;22.93;57.70
24234;BME280;12365;43.554;1.388;2022-10-31T00:09:21;100072.94;;;22.93;57.82
24234;BME280;12365;43.554;1.388;2022-10-31T00:11:46;100062.31;;;22.92;57.79
24234;BME280;12365;43.554;1.388;2022-10-31T00:14:11;100062.31;;;22.90;57.73
24234;BME280;12365;43.554;1.388;2022-10-31T00:16:37;100072.94;;;22.90;57.90
24234;BME280;12365;43.554;1.388;2022-10-31T00:19:04;100060.53;;;22.89;57.95
24234;BME280;12365;43.554;1.388;2022-10-31T00:21:31;100066.75;;;22.87;57.99
24234;BME280;12365;43.554;1.388;2022-10-31T00:23:58;100073.81;;;22.86;57.94
24234;BME280;12365;43.554;1.388;2022-10-31T00:26:24;100076.47;;;22.86;57.88
24234;BME280;12365;43.554;1.388;2022-10-31T00:28:51;100083.59;;;22.87;57.93
24234;BME280;12365;43.554;1.388;2022-10-31T00:31:16;100090.69;;;22.90;58.03
24234;BME280;12365;43.554;1.388;2022-10-31T00:33:42;100086.25;;;22.90;58.12
24234;BME280;12365;43.554;1.388;2022-10-31T00:36:11;100052.56;;;22.92;58.01
24234;BME280;12365;43.554;1.388;2022-10-31T00:38:37;100026.81;;;22.93;57.86
24234;BME280;12365;43.554;1.388;2022-10-31T00:41:02;100017.94;;;22.91;58.15
24234;BME280;12365;43.554;1.388;2022-10-31T00:43:28;100001.09;;;22.87;58.12
24234;BME280;12365;43.554;1.388;2022-10-31T00:45:53;99998.44;;;22.84;58.14
24234;BME280;12365;43.554;1.388;2022-10-31T00:48:18;99991.31;;;22.83;58.21
24234;BME280;12365;43.554;1.388;2022-10-31T00:50:44;99968.25;;;22.81;58.10
24234;BME280;12365;43.554;1.388;2022-10-31T00:53:10;99954.06;;;22.77;58.24
24234;BME280;12365;43.554;1.388;2022-10-31T00:55:35;99952.31;;;22.75;58.10
24234;BME280;12365;43.554;1.388;2022-10-31T00:58:01;99961.16;;;22.70;58.31
24234;BME280;12365;43.554;1.388;2022-10-31T01:00:26;99964.69;;;22.68;58.34
24234;BME280;12365;43.554;1.388;2022-10-31T01:02:52;99954.03;;;22.63;58.22
24234;BME280;12365;43.554;1.388;2022-10-31T01:05:17;99946.06;;;22.60;58.34
24234;BME280;12365;43.554;1.388;2022-10-31T01:07:43;99948.72;;;22.57;58.63
24234;BME280;12365;43.554;1.388;2022-10-31T01:10:09;99970.88;;;22.52;58.54
24234;BME280;12365;43.554;1.388;2022-10-31T01:12:42;99983.28;;;22.49;58.61
24234;BME280;12365;43.554;1.388;2022-10-31T01:15:10;99976.16;;;22.45;58.64
24234;BME280;12365;43.554;1.388;2022-10-31T01:17:36;99969.97;;;22.43;58.56
24234;BME280;12365;43.554;1.388;2022-10-31T01:20:03;99984.13;;;22.42;58.69
24234;BME280;12365;43.554;1.388;2022-10-31T01:22:28;99994.78;;;22.39;58.72
24234;BME280;12365;43.554;1.388;2022-10-31T01:24:55;99988.56;;;22.39;58.74
24234;BME280;12365;43.554;1.388;2022-10-31T01:27:20;99994.78;;;22.36;58.78
24234;BME280;12365;43.554;1.388;2022-10-31T01:29:46;100003.63;;;22.35;58.73
24234;BME280;12365;43.554;1.388;2022-10-31T01:32:11;99996.53;;;22.34;58.73
24234;BME280;12365;43.554;1.388;2022-10-31T01:34:37;100002.75;;;22.36;58.57
24234;BME280;12365;43.554;1.388;2022-10-31T01:37:02;100001.84;;;22.34;58.57
24234;BME280;12365;43.554;1.388;2022-10-31T01:39:27;100000.97;;;22.34;58.58
24234;BME280;12365;43.554;1.388;2022-10-31T01:41:53;100002.72;;;22.33;58.65
24234;BME280;12365;43.554;1.388;2022-10-31T01:46:54;100005.38;;;22.30;58.62
24234;BME280;12365;43.554;1.388;2022-10-31T01:49:24;100001.81;;;22.26;58.58
24234;BME280;12365;43.554;1.388;2022-10-31T01:54:29;100003.59;;;22.26;58.65
24234;BME280;12365;43.554;1.388;2022-10-31T01:56:58;99997.38;;;22.24;58.77
24234;BME280;12365;43.554;1.388;2022-10-31T01:59:28;100001.81;;;22.26;58.78
24234;BME280;12365;43.554;1.388;2022-10-31T02:01:54;99997.38;;;22.27;58.70
24234;BME280;12365;43.554;1.388;2022-10-31T02:04:21;99988.53;;;22.26;58.71
24234;BME280;12365;43.554;1.388;2022-10-31T02:06:57;99978.78;;;22.24;58.83
24234;BME280;12365;43.554;1.388;2022-10-31T02:09:25;99977.00;;;22.26;58.71
24234;BME280;12365;43.554;1.388;2022-10-31T02:11:52;99969.91;;;22.25;58.86
24234;BME280;12365;43.554;1.388;2022-10-31T02:14:24;99970.78;;;22.25;58.79
24234;BME280;12365;43.554;1.388;2022-10-31T02:16:50;99971.69;;;22.26;58.62
24234;BME280;12365;43.554;1.388;2022-10-31T02:19:45;99960.16;;;22.25;58.64
24234;BME280;12365;43.554;1.388;2022-10-31T02:22:15;99955.72;;;22.24;58.75
24234;BME280;12365;43.554;1.388;2022-10-31T02:30:16;99946.78;;;22.18;58.78
24234;BME280;12365;43.554;1.388;2022-10-31T02:32:54;99941.47;;;22.18;58.76
24234;BME280;12365;43.554;1.388;2022-10-31T02:35:57;99936.16;;;22.18;58.84
24234;BME280;12365;43.554;1.388;2022-10-31T02:41:27;99927.34;;;22.20;58.93
24234;BME280;12365;43.554;1.388;2022-10-31T02:46:43;99930.91;;;22.21;58.99
24234;BME280;12365;43.554;1.388;2022-10-31T02:49:21;99924.69;;;22.20;58.99
24234;BME280;12365;43.554;1.388;2022-10-31T02:51:48;99934.44;;;22.23;58.82
24234;BME280;12365;43.554;1.388;2022-10-31T02:54:18;99932.66;;;22.20;59.04
24234;BME280;12365;43.554;1.388;2022-10-31T02:56:45;99930.91;;;22.21;58.93
24234;BME280;12365;43.554;1.388;2022-10-31T02:59:11;99932.66;;;22.20;59.03
24234;BME280;12365;43.554;1.388;2022-10-31T03:04:37;99913.13;;;22.14;59.03
24234;BME280;12365;43.554;1.388;2022-10-31T03:16:30;99892.72;;;22.02;59.25
24234;BME280;12365;43.554;1.388;2022-10-31T03:19:10;99898.91;;;21.99;59.39
24234;BME280;12365;43.554;1.388;2022-10-31T03:21:45;99905.97;;;21.97;59.32
24234;BME280;12365;43.554;1.388;2022-10-31T03:24:13;99904.22;;;21.93;59.51
24234;BME280;12365;43.554;1.388;2022-10-31T03:26:46;99903.34;;;21.93;59.46
24234;BME280;12365;43.554;1.388;2022-10-31T03:29:15;99904.19;;;21.90;59.36
24234;BME280;12365;43.554;1.388;2022-10-31T03:31:50;99899.75;;;21.89;59.61
24234;BME280;12365;43.554;1.388;2022-10-31T03:34:18;99903.31;;;21.88;59.86
24234;BME280;12365;43.554;1.388;2022-10-31T03:36:47;99898.84;;;21.87;59.48
24234;BME280;12365;43.554;1.388;2022-10-31T03:39:15;99899.72;;;21.84;59.77
24234;BME280;12365;43.554;1.388;2022-10-31T03:41:46;99897.97;;;21.85;59.57
24234;BME280;12365;43.554;1.388;2022-10-31T03:44:17;99897.97;;;21.86;59.50
24234;BME280;12365;43.554;1.388;2022-10-31T03:46:44;99896.22;;;21.85;59.42
24234;BME280;12365;43.554;1.388;2022-10-31T03:49:10;99892.63;;;21.82;59.80
24234;BME280;12365;43.554;1.388;2022-10-31T03:51:44;99897.06;;;21.80;59.67
24234;BME280;12365;43.554;1.388;2022-10-31T03:56:47;99900.59;;;21.76;59.67
24234;BME280;12365;43.554;1.388;2022-10-31T03:59:20;99891.72;;;21.77;59.65
24234;BME280;12365;43.554;1.388;2022-10-31T04:01:50;99888.19;;;21.76;60.00
24234;BME280;12365;43.554;1.388;2022-10-31T04:04:19;99883.75;;;21.77;59.79
24234;BME280;12365;43.554;1.388;2022-10-31T04:06:45;99890.84;;;21.76;59.77
24234;BME280;12365;43.554;1.388;2022-10-31T04:09:13;99881.97;;;21.74;59.87
24234;BME280;12365;43.554;1.388;2022-10-31T04:11:50;99890.84;;;21.73;59.90
24234;BME280;12365;43.554;1.388;2022-10-31T04:14:16;99887.28;;;21.74;60.08
24234;BME280;12365;43.554;1.388;2022-10-31T04:16:43;99889.06;;;21.72;59.93
24234;BME280;12365;43.554;1.388;2022-10-31T04:19:10;99893.47;;;21.72;59.93
24234;BME280;12365;43.554;1.388;2022-10-31T04:21:36;99891.72;;;21.72;59.84
24234;BME280;12365;43.554;1.388;2022-10-31T04:24:01;99886.41;;;21.74;59.97
24234;BME280;12365;43.554;1.388;2022-10-31T04:26:27;99876.66;;;21.74;60.14
24234;BME280;12365;43.554;1.388;2022-10-31T04:28:52;99874.00;;;21.74;59.81
24234;BME280;12365;43.554;1.388;2022-10-31T04:31:17;99874.03;;;21.73;60.14
24234;BME280;12365;43.554;1.388;2022-10-31T04:33:43;99873.13;;;21.72;60.09
24234;BME280;12365;43.554;1.388;2022-10-31T04:36:09;99871.34;;;21.71;60.18
24234;BME280;12365;43.554;1.388;2022-10-31T04:38:34;99880.22;;;21.70;59.94
24234;BME280;12365;43.554;1.388;2022-10-31T04:40:59;99872.22;;;21.72;60.16
24234;BME280;12365;43.554;1.388;2022-10-31T04:43:25;99877.53;;;21.69;60.13
24234;BME280;12365;43.554;1.388;2022-10-31T04:45:50;99867.81;;;21.68;60.19
24234;BME280;12365;43.554;1.388;2022-10-31T04:48:16;99875.78;;;21.68;60.23
24234;BME280;12365;43.554;1.388;2022-10-31T04:50:42;99875.78;;;21.68;60.10
24234;BME280;12365;43.554;1.388;2022-10-31T04:53:07;99881.97;;;21.68;60.33
24234;BME280;12365;43.554;1.388;2022-10-31T04:55:33;99878.44;;;21.68;60.25
24234;BME280;12365;43.554;1.388;2022-10-31T04:57:59;99889.94;;;21.70;60.04
24234;BME280;12365;43.554;1.388;2022-10-31T05:00:25;99881.06;;;21.69;60.12
24234;BME280;12365;43.554;1.388;2022-10-31T05:02:56;99871.34;;;21.70;60.34
24234;BME280;12365;43.554;1.388;2022-10-31T05:05:24;99873.13;;;21.71;60.14
24234;BME280;12365;43.554;1.388;2022-10-31T05:07:50;99873.09;;;21.69;60.13
24234;BME280;12365;43.554;1.388;2022-10-31T05:10:18;99866.94;;;21.70;60.25
24234;BME280;12365;43.554;1.388;2022-10-31T05:12:48;99868.69;;;21.70;60.38
24234;BME280;12365;43.554;1.388;2022-10-31T05:15:15;99873.13;;;21.71;60.35
24234;BME280;12365;43.554;1.388;2022-10-31T05:17:41;99866.91;;;21.69;60.46
24234;BME280;12365;43.554;1.388;2022-10-31T05:20:06;99863.34;;;21.67;60.41
24234;BME280;12365;43.554;1.388;2022-10-31T05:22:32;99858.06;;;21.67;60.35
24234;BME280;12365;43.554;1.388;2022-10-31T05:24:58;99856.28;;;21.66;60.39
24234;BME280;12365;43.554;1.388;2022-10-31T05:27:23;99855.38;;;21.63;60.38
24234;BME280;12365;43.554;1.388;2022-10-31T05:29:48;99858.03;;;21.62;60.19
24234;BME280;12365;43.554;1.388;2022-10-31T05:32:14;99854.50;;;21.60;60.51
24234;BME280;12365;43.554;1.388;2022-10-31T05:34:39;99863.34;;;21.60;60.39
24234;BME280;12365;43.554;1.388;2022-10-31T05:37:04;99859.81;;;21.61;60.51
24234;BME280;12365;43.554;1.388;2022-10-31T05:39:30;99864.25;;;21.62;60.46
24234;BME280;12365;43.554;1.388;2022-10-31T05:41:55;99861.56;;;21.61;60.39
24234;BME280;12365;43.554;1.388;2022-10-31T05:44:21;99861.56;;;21.61;60.30
24234;BME280;12365;43.554;1.388;2022-10-31T05:46:46;99854.50;;;21.60;60.28
24234;BME280;12365;43.554;1.388;2022-10-31T05:49:12;99856.25;;;21.59;60.34
24234;BME280;12365;43.554;1.388;2022-10-31T05:51:37;99863.34;;;21.57;60.43
24234;BME280;12365;43.554;1.388;2022-10-31T05:54:03;99865.97;;;21.54;60.55
24234;BME280;12365;43.554;1.388;2022-10-31T05:56:28;99858.88;;;21.52;60.58
24234;BME280;12365;43.554;1.388;2022-10-31T05:58:54;99865.00;;;21.38;60.65
24234;BME280;12365;43.554;1.388;2022-10-31T06:01:19;99867.56;;;21.25;60.41
24234;BME280;12365;43.554;1.388;2022-10-31T06:03:45;99873.66;;;21.11;60.56
24234;BME280;12365;43.554;1.388;2022-10-31T06:06:10;99868.28;;;21.02;60.34
24234;BME280;12365;43.554;1.388;2022-10-31T06:08:36;99866.44;;;20.93;60.43
24234;BME280;12365;43.554;1.388;2022-10-31T06:11:01;99861.09;;;20.86;60.47
24234;BME280;12365;43.554;1.388;2022-10-31T06:13:27;99860.09;;;20.73;60.24
24234;BME280;12365;43.554;1.388;2022-10-31T06:15:52;99867.13;;;20.66;60.34
24234;BME280;12365;43.554;1.388;2022-10-31T06:18:17;99860.00;;;20.61;60.16
24234;BME280;12365;43.554;1.388;2022-10-31T06:20:43;99864.34;;;20.54;60.24
24234;BME280;12365;43.554;1.388;2022-10-31T06:23:08;99857.19;;;20.48;60.45
24234;BME280;12365;43.554;1.388;2022-10-31T06:25:35;99857.19;;;20.44;60.10
24234;BME280;12365;43.554;1.388;2022-10-31T06:28:00;99854.47;;;20.38;60.04
24234;BME280;12365;43.554;1.388;2022-10-31T06:30:26;99855.31;;;20.33;60.25
24234;BME280;12365;43.554;1.388;2022-10-31T06:32:51;99868.53;;;20.30;60.35
24234;BME280;12365;43.554;1.388;2022-10-31T06:35:17;99855.22;;;20.24;60.39
24234;BME280;12365;43.554;1.388;2022-10-31T06:37:43;99860.50;;;20.21;60.25
24234;BME280;12365;43.554;1.388;2022-10-31T06:40:15;99863.13;;;20.20;60.49
24234;BME280;12365;43.554;1.388;2022-10-31T06:42:40;99858.69;;;20.20;60.15
24234;BME280;12365;43.554;1.388;2022-10-31T06:45:06;99853.41;;;20.20;60.31
24234;BME280;12365;43.554;1.388;2022-10-31T06:47:31;99856.91;;;20.16;60.24
24234;BME280;12365;43.554;1.388;2022-10-31T06:49:57;99852.47;;;20.15;60.26
24234;BME280;12365;43.554;1.388;2022-10-31T06:52:22;99857.78;;;20.15;60.21
24234;BME280;12365;43.554;1.388;2022-10-31T06:54:48;99849.78;;;20.09;60.03
24234;BME280;12365;43.554;1.388;2022-10-31T06:57:13;99874.59;;;20.16;59.99
24234;BME280;12365;43.554;1.388;2022-10-31T06:59:39;99881.69;;;20.18;60.24
24234;BME280;12365;43.554;1.388;2022-10-31T07:02:04;99863.13;;;20.20;59.93
24234;BME280;12365;43.554;1.388;2022-10-31T07:04:30;99872.00;;;20.23;59.76
24234;BME280;12365;43.554;1.388;2022-10-31T07:06:55;99874.66;;;20.23;59.69
24234;BME280;12365;43.554;1.388;2022-10-31T07:09:21;99875.50;;;20.22;59.83
24234;BME280;12365;43.554;1.388;2022-10-31T07:11:46;99877.31;;;20.25;59.68
24234;BME280;12365;43.554;1.388;2022-10-31T07:14:11;99875.59;;;20.30;59.48
24234;BME280;12365;43.554;1.388;2022-10-31T07:16:37;99868.56;;;20.35;59.37
24234;BME280;12365;43.554;1.388;2022-10-31T07:19:02;99877.47;;;20.42;59.44
24234;BME280;12365;43.554;1.388;2022-10-31T07:21:27;99873.16;;;20.53;59.43
24234;BME280;12365;43.554;1.388;2022-10-31T07:23:53;99875.91;;;20.61;58.94
24234;BME280;12365;43.554;1.388;2022-10-31T07:26:18;99874.19;;;20.66;59.17
24234;BME280;12365;43.554;1.388;2022-10-31T07:28:46;99873.31;;;20.68;58.89
24234;BME280;12365;43.554;1.388;2022-10-31T07:31:12;99867.13;;;20.68;59.04
24234;BME280;12365;43.554;1.388;2022-10-31T07:33:37;99867.16;;;20.71;58.81
24234;BME280;12365;43.554;1.388;2022-10-31T07:36:02;99860.09;;;20.73;58.88
24234;BME280;12365;43.554;1.388;2022-10-31T07:38:28;99854.81;;;20.76;59.03
24234;BME280;12365;43.554;1.388;2022-10-31T07:40:53;99853.03;;;20.73;58.63
24234;BME280;12365;43.554;1.388;2022-10-31T07:43:19;99864.53;;;20.72;58.92
24234;BME280;12365;43.554;1.388;2022-10-31T07:45:52;99865.44;;;20.77;58.87
24234;BME280;12365;43.554;1.388;2022-10-31T07:48:18;99868.19;;;20.87;59.04
24234;BME280;12365;43.554;1.388;2022-10-31T07:50:43;99866.47;;;20.95;59.02
24234;BME280;12365;43.554;1.388;2022-10-31T07:53:10;99875.44;;;21.12;59.01
24234;BME280;12365;43.554;1.388;2022-10-31T07:55:36;99868.47;;;21.33;58.78
24234;BME280;12365;43.554;1.388;2022-10-31T07:58:04;99870.34;;;21.46;58.70
24234;BME280;12365;43.554;1.388;2022-10-31T08:00:31;99861.53;;;21.47;58.80
24234;BME280;12365;43.554;1.388;2022-10-31T08:03:09;99860.69;;;21.59;59.02
24234;BME280;12365;43.554;1.388;2022-10-31T08:05:35;99871.34;;;21.70;58.98
24234;BME280;12365;43.554;1.388;2022-10-31T08:08:01;99862.59;;;21.91;59.01
24234;BME280;12365;43.554;1.388;2022-10-31T08:10:27;99856.50;;;22.21;58.61
24234;BME280;12365;43.554;1.388;2022-10-31T08:13:06;99868.03;;;22.50;58.56
24234;BME280;12365;43.554;1.388;2022-10-31T08:15:32;99869.81;;;22.81;58.24
24234;BME280;12365;43.554;1.388;2022-10-31T08:17:59;99862.72;;;23.09;58.10
24234;BME280;12365;43.554;1.388;2022-10-31T08:20:25;99855.59;;;23.32;57.72
24234;BME280;12365;43.554;1.388;2022-10-31T08:23:00;99839.50;;;23.54;57.54
24234;BME280;12365;43.554;1.388;2022-10-31T08:25:28;99835.88;;;23.72;57.19
24234;BME280;12365;43.554;1.388;2022-10-31T08:27:55;99843.84;;;23.84;57.06
24234;BME280;12365;43.554;1.388;2022-10-31T08:30:22;99843.81;;;23.93;56.96
24234;BME280;12365;43.554;1.388;2022-10-31T08:35:24;99833.97;;;24.05;56.78
24234;BME280;12365;43.554;1.388;2022-10-31T08:37:54;99830.31;;;24.18;56.21
24234;BME280;12365;43.554;1.388;2022-10-31T08:40:20;99832.97;;;24.19;56.08
24234;BME280;12365;43.554;1.388;2022-10-31T08:42:45;99825.84;;;24.25;56.18
24234;BME280;12365;43.554;1.388;2022-10-31T08:45:11;99823.13;;;24.29;55.93
24234;BME280;12365;43.554;1.388;2022-10-31T08:47:36;99816.03;;;24.30;55.69
24234;BME280;12365;43.554;1.388;2022-10-31T08:50:02;99812.47;;;24.29;55.61
24234;BME280;12365;43.554;1.388;2022-10-31T08:52:27;99819.56;;;24.32;55.88
24234;BME280;12365;43.554;1.388;2022-10-31T08:54:52;99806.13;;;24.49;55.47
24234;BME280;12365;43.554;1.388;2022-10-31T08:57:18;99812.19;;;24.68;55.04
24234;BME280;12365;43.554;1.388;2022-10-31T08:59:43;99809.41;;;24.81;54.70
24234;BME280;12365;43.554;1.388;2022-10-31T09:02:08;99812.84;;;24.93;54.52
24234;BME280;12365;43.554;1.388;2022-10-31T09:04:34;99796.75;;;24.99;54.33
24234;BME280;12365;43.554;1.388;2022-10-31T09:06:59;99801.19;;;25.00;54.49
24234;BME280;12365;43.554;1.388;2022-10-31T09:09:25;99802.06;;;25.00;54.13
24234;BME280;12365;43.554;1.388;2022-10-31T09:11:50;99796.69;;;25.05;53.87
24234;BME280;12365;43.554;1.388;2022-10-31T09:14:15;99792.19;;;25.08;54.14
24234;BME280;12365;43.554;1.388;2022-10-31T09:16:41;99787.75;;;25.06;53.72
24234;BME280;12365;43.554;1.388;2022-10-31T09:19:06;99785.13;;;25.04;53.89
24234;BME280;12365;43.554;1.388;2022-10-31T09:21:31;99792.31;;;24.99;53.85
24234;BME280;12365;43.554;1.388;2022-10-31T09:23:57;99787.00;;;24.93;53.38
24234;BME280;12365;43.554;1.388;2022-10-31T09:26:22;99787.94;;;24.92;53.42
24234;BME280;12365;43.554;1.388;2022-10-31T09:28:47;99788.84;;;24.88;53.18
24234;BME280;12365;43.554;1.388;2022-10-31T09:31:13;99793.31;;;24.89;53.09
24234;BME280;12365;43.554;1.388;2022-10-31T09:33:38;99797.59;;;25.02;53.32
24234;BME280;12365;43.554;1.388;2022-10-31T09:36:04;99791.22;;;25.16;52.96
24234;BME280;12365;43.554;1.388;2022-10-31T09:38:29;99790.34;;;25.17;52.32
24234;BME280;12365;43.554;1.388;2022-10-31T09:41:16;99785.88;;;25.16;52.54
24234;BME280;12365;43.554;1.388;2022-10-31T09:44:05;99791.22;;;25.16;52.32
24234;BME280;12365;43.554;1.388;2022-10-31T09:49:29;99799.63;;;25.61;51.62
24234;BME280;12365;43.554;1.388;2022-10-31T09:52:02;99796.63;;;25.84;51.49
24234;BME280;12365;43.554;1.388;2022-10-31T09:54:57;99787.66;;;25.89;51.36
24234;BME280;12365;43.554;1.388;2022-10-31T09:57:35;99779.41;;;26.05;50.88
24234;BME280;12365;43.554;1.388;2022-10-31T10:00:05;99780.84;;;26.27;50.68
24234;BME280;12365;43.554;1.388;2022-10-31T10:02:42;99784.88;;;26.54;50.39
24234;BME280;12365;43.554;1.388;2022-10-31T10:05:12;99785.44;;;26.73;49.99
24234;BME280;12365;43.554;1.388;2022-10-31T10:15:35;99780.75;;;27.33;49.07
24234;BME280;12365;43.554;1.388;2022-10-31T10:18:22;99778.72;;;27.44;48.70
24234;BME280;12365;43.554;1.388;2022-10-31T10:26:29;99766.66;;;27.65;47.87
24234;BME280;12365;43.554;1.388;2022-10-31T10:29:00;99763.91;;;27.68;47.76
24234;BME280;12365;43.554;1.388;2022-10-31T10:31:32;99768.25;;;27.74;47.32
24234;BME280;12365;43.554;1.388;2022-10-31T10:36:56;99761.06;;;27.76;47.01
24234;BME280;12365;43.554;1.388;2022-10-31T10:39:36;99761.84;;;27.81;46.85
24234;BME280;12365;43.554;1.388;2022-10-31T10:42:11;99752.81;;;27.85;46.60
24234;BME280;12365;43.554;1.388;2022-10-31T10:44:55;99754.31;;;27.98;46.49
24234;BME280;12365;43.554;1.388;2022-10-31T10:47:47;99746.84;;;28.11;46.18
24234;BME280;12365;43.554;1.388;2022-10-31T10:50:20;99740.25;;;28.24;45.95
24234;BME280;12365;43.554;1.388;2022-10-31T10:52:58;99743.38;;;28.42;45.71
24234;BME280;12365;43.554;1.388;2022-10-31T10:55:34;99744.22;;;28.45;45.28
24234;BME280;12365;43.554;1.388;2022-10-31T10:58:09;99732.59;;;28.43;45.20
24234;BME280;12365;43.554;1.388;2022-10-31T11:00:43;99738.06;;;28.40;45.18
24234;BME280;12365;43.554;1.388;2022-10-31T11:03:11;99736.25;;;28.41;45.11
24234;BME280;12365;43.554;1.388;2022-10-31T11:05:55;99726.41;;;28.41;44.77
24234;BME280;12365;43.554;1.388;2022-10-31T11:08:42;99733.47;;;28.45;44.59
24234;BME280;12365;43.554;1.388;2022-10-31T11:11:22;99734.09;;;28.57;44.59
24234;BME280;12365;43.554;1.388;2022-10-31T11:13:52;99724.81;;;28.68;44.30
24234;BME280;12365;43.554;1.388;2022-10-31T11:18:53;99715.00;;;28.99;43.69
24234;BME280;12365;43.554;1.388;2022-10-31T11:21:29;99703.94;;;29.11;43.94
24234;BME280;12365;43.554;1.388;2022-10-31T11:24:14;99707.16;;;29.24;43.80
24234;BME280;12365;43.554;1.388;2022-10-31T11:26:43;99706.00;;;29.32;43.36
24234;BME280;12365;43.554;1.388;2022-10-31T11:31:51;99705.53;;;29.18;43.01
24234;BME280;12365;43.554;1.388;2022-10-31T11:37:04;99702.88;;;29.16;42.69
24234;BME280;12365;43.554;1.388;2022-10-31T11:39:40;99701.72;;;29.25;42.29
24234;BME280;12365;43.554;1.388;2022-10-31T11:42:07;99693.09;;;29.14;42.23
24234;BME280;12365;43.554;1.388;2022-10-31T11:44:33;99691.38;;;29.11;42.40
24234;BME280;12365;43.554;1.388;2022-10-31T11:47:01;99685.28;;;29.05;41.91
24234;BME280;12365;43.554;1.388;2022-10-31T11:49:37;99680.63;;;28.80;42.26
24234;BME280;12365;43.554;1.388;2022-10-31T11:52:13;99675.28;;;28.79;42.39
24234;BME280;12365;43.554;1.388;2022-10-31T11:55:02;99664.81;;;28.99;42.32
24234;BME280;12365;43.554;1.388;2022-10-31T11:57:56;99651.13;;;29.10;42.05
24234;BME280;12365;43.554;1.388;2022-10-31T12:00:31;99655.44;;;29.15;41.88
24234;BME280;12365;43.554;1.388;2022-10-31T12:06:16;99640.44;;;29.36;41.28
24234;BME280;12365;43.554;1.388;2022-10-31T12:08:40;99633.72;;;29.50;40.70
24234;BME280;12365;43.554;1.388;2022-10-31T12:11:35;99638.69;;;29.65;40.96
24234;BME280;12365;43.554;1.388;2022-10-31T12:17:06;99628.13;;;29.86;40.33
24234;BME280;12365;43.554;1.388;2022-10-31T12:22:12;99611.34;;;29.77;40.83
24234;BME280;12365;43.554;1.388;2022-10-31T12:30:21;99614.59;;;29.60;40.56
24234;BME280;12365;43.554;1.388;2022-10-31T12:41:39;99594.31;;;29.50;40.59
24234;BME280;12365;43.554;1.388;2022-10-31T12:44:27;99582.22;;;29.35;40.97
24234;BME280;12365;43.554;1.388;2022-10-31T12:55:06;99569.19;;;29.23;40.45
24234;BME280;12365;43.554;1.388;2022-10-31T12:57:47;99569.22;;;29.22;40.28
24234;BME280;12365;43.554;1.388;2022-10-31T13:00:16;99562.19;;;29.17;40.55
24234;BME280;12365;43.554;1.388;2022-10-31T13:05:30;99564.06;;;29.15;40.17
24234;BME280;12365;43.554;1.388;2022-10-31T13:10:33;99564.53;;;28.99;40.53
24234;BME280;12365;43.554;1.388;2022-10-31T13:13:11;99557.53;;;28.94;40.58
24234;BME280;12365;43.554;1.388;2022-10-31T13:15:51;99561.59;;;29.08;40.05
24234;BME280;12365;43.554;1.388;2022-10-31T13:18:30;99562.38;;;29.11;40.36
24234;BME280;12365;43.554;1.388;2022-10-31T13:20:59;99555.28;;;29.09;40.06
24234;BME280;12365;43.554;1.388;2022-10-31T13:23:34;99555.34;;;29.07;40.26
24234;BME280;12365;43.554;1.388;2022-10-31T13:26:10;99545.56;;;29.05;40.28
24234;BME280;12365;43.554;1.388;2022-10-31T13:31:05;99542.31;;;28.93;40.21
24234;BME280;12365;43.554;1.388;2022-10-31T13:33:48;99547.88;;;28.87;40.50
24234;BME280;12365;43.554;1.388;2022-10-31T13:39:33;99549.19;;;28.74;40.78
24234;BME280;12365;43.554;1.388;2022-10-31T13:44:38;99536.53;;;28.48;41.14
24234;BME280;12365;43.554;1.388;2022-10-31T13:47:23;99533.25;;;28.37;41.21
24234;BME280;12365;43.554;1.388;2022-10-31T13:49:49;99533.50;;;28.27;41.48
24234;BME280;12365;43.554;1.388;2022-10-31T13:52:22;99533.69;;;28.21;41.10
24234;BME280;12365;43.554;1.388;2022-10-31T13:54:50;99539.22;;;28.15;41.33
24234;BME280;12365;43.554;1.388;2022-10-31T13:57:30;99534.94;;;28.08;41.12
24234;BME280;12365;43.554;1.388;2022-10-31T14:00:03;99536.00;;;28.02;41.47
24234;BME280;12365;43.554;1.388;2022-10-31T14:02:36;99538.00;;;27.94;41.41
24234;BME280;12365;43.554;1.388;2022-10-31T14:05:31;99528.28;;;27.90;41.55
24234;BME280;12365;43.554;1.388;2022-10-31T14:08:00;99529.31;;;27.84;41.62
24234;BME280;12365;43.554;1.388;2022-10-31T14:10:37;99534.78;;;27.80;41.55
24234;BME280;12365;43.554;1.388;2022-10-31T14:15:28;99531.59;;;27.65;41.74
24234;BME280;12365;43.554;1.388;2022-10-31T14:17:57;99523.69;;;27.59;41.68
24234;BME280;12365;43.554;1.388;2022-10-31T14:20:26;99529.16;;;27.56;41.79
24234;BME280;12365;43.554;1.388;2022-10-31T14:22:56;99525.78;;;27.48;41.79
24234;BME280;12365;43.554;1.388;2022-10-31T14:25:35;99524.16;;;27.41;42.00
24234;BME280;12365;43.554;1.388;2022-10-31T14:28:18;99519.84;;;27.35;42.13
24234;BME280;12365;43.554;1.388;2022-10-31T14:30:56;99523.56;;;27.30;42.20
24234;BME280;12365;43.554;1.388;2022-10-31T14:33:25;99521.88;;;27.26;42.30
24234;BME280;12365;43.554;1.388;2022-10-31T14:36:04;99513.94;;;27.21;42.05
24234;BME280;12365;43.554;1.388;2022-10-31T14:39:04;99518.44;;;27.20;42.30
24234;BME280;12365;43.554;1.388;2022-10-31T14:47:25;99509.81;;;27.06;42.64
24234;BME280;12365;43.554;1.388;2022-10-31T14:52:18;99517.16;;;26.96;42.44
24234;BME280;12365;43.554;1.388;2022-10-31T14:54:53;99512.81;;;26.92;42.42
24234;BME280;12365;43.554;1.388;2022-10-31T14:57:26;99516.44;;;26.90;42.80
24234;BME280;12365;43.554;1.388;2022-10-31T14:59:58;99511.19;;;26.85;42.58
24234;BME280;12365;43.554;1.388;2022-10-31T15:05:26;99516.69;;;26.79;42.86
24234;BME280;12365;43.554;1.388;2022-10-31T15:07:54;99519.41;;;26.77;42.92
24234;BME280;12365;43.554;1.388;2022-10-31T15:12:48;99526.66;;;26.72;42.88
24234;BME280;12365;43.554;1.388;2022-10-31T15:15:21;99523.13;;;26.70;43.10